Time;durP1;ratioP1;P1;durP2;ratioP2;P2;SDS_P1;SDS_P2;PMS_P1;PMS_P2;Temp;Humidity;BMP_temperature;BMP_pressure;BME280_temperature;BME280_humidity;BME280_pressure;Samples;Min_cycle;Max_cycle;Signal;HPM_P1;HPM_P2
2023/05/29 00:01:25;;;;;;;16.98;3.13;;;10.60;83.90;;;;;;5043844;28;20044;-68
2023/05/29 00:03:51;;;;;;;14.32;3.38;;;10.60;84.30;;;;;;5048527;28;20036;-68
2023/05/29 00:06:17;;;;;;;10.93;2.63;;;10.60;84.40;;;;;;5050395;28;20508;-68
2023/05/29 00:08:43;;;;;;;18.20;3.13;;;10.50;84.50;;;;;;5064750;28;20027;-68
2023/05/29 00:11:08;;;;;;;17.90;3.00;;;10.50;84.40;;;;;;5047779;28;20033;-68
2023/05/29 00:13:34;;;;;;;14.10;3.20;;;10.50;84.50;;;;;;5053619;28;20075;-67
2023/05/29 00:16:00;;;;;;;17.50;3.13;;;10.50;84.40;;;;;;5045059;28;20513;-68
2023/05/29 00:18:27;;;;;;;16.70;2.70;;;10.50;84.50;;;;;;5048259;28;20079;-68
2023/05/29 00:20:53;;;;;;;14.20;3.38;;;10.50;84.50;;;;;;5051493;28;20104;-67
2023/05/29 00:23:18;;;;;;;17.50;3.20;;;10.50;84.50;;;;;;5051576;28;20035;-67
2023/05/29 00:25:44;;;;;;;14.85;3.08;;;10.50;84.40;;;;;;5053339;28;20028;-68
2023/05/29 00:28:11;;;;;;;17.10;2.88;;;10.50;84.20;;;;;;5048450;28;20481;-68
2023/05/29 00:30:37;;;;;;;16.13;3.03;;;10.50;84.50;;;;;;5042330;28;20048;-68
2023/05/29 00:33:02;;;;;;;17.95;3.45;;;10.50;84.30;;;;;;5046664;28;20028;-67
2023/05/29 00:35:28;;;;;;;17.23;2.78;;;10.40;84.10;;;;;;5053384;28;20074;-67
2023/05/29 00:37:53;;;;;;;15.30;3.17;;;10.40;84.30;;;;;;5052107;28;20029;-67
2023/05/29 00:40:19;;;;;;;17.15;3.25;;;10.30;84.20;;;;;;5053518;28;20423;-68
2023/05/29 00:42:44;;;;;;;15.65;3.13;;;10.30;84.20;;;;;;5052734;28;20029;-68
2023/05/29 00:45:10;;;;;;;17.60;3.40;;;10.30;84.60;;;;;;5049055;28;20039;-68
2023/05/29 00:47:36;;;;;;;10.32;2.78;;;10.30;84.10;;;;;;5049110;28;20024;-68
2023/05/29 00:50:03;;;;;;;13.20;2.97;;;10.30;83.90;;;;;;5043223;28;20090;-68
2023/05/29 00:52:29;;;;;;;13.57;2.80;;;10.30;84.00;;;;;;5054336;28;20036;-68
2023/05/29 00:54:55;;;;;;;14.98;2.72;;;10.20;84.10;;;;;;5046187;28;20377;-67
2023/05/29 00:57:22;;;;;;;12.95;3.03;;;10.20;84.20;;;;;;5060048;28;20021;-67
2023/05/29 00:59:48;;;;;;;14.60;2.97;;;10.10;84.20;;;;;;5047860;28;20033;-68
2023/05/29 01:02:14;;;;;;;16.25;2.95;;;10.10;83.90;;;;;;5044767;28;20043;-68
2023/05/29 01:04:40;;;;;;;12.43;2.67;;;10.10;83.90;;;;;;5046542;28;20135;-67
2023/05/29 01:07:06;;;;;;;15.65;2.90;;;10.10;83.60;;;;;;5045034;28;20055;-68
2023/05/29 01:09:34;;;;;;;19.45;2.60;;;10.10;83.30;;;;;;5049939;28;20045;-68
2023/05/29 01:12:21;;;;;;;13.68;2.47;;;10.10;83.40;;;;;;5045459;28;20021;-68
2023/05/29 01:14:57;;;;;;;10.48;2.85;;;10.10;83.50;;;;;;5046770;28;20061;-68
2023/05/29 01:17:33;;;;;;;11.50;2.45;;;10.10;83.40;;;;;;5048040;28;20056;-68
2023/05/29 01:20:28;;;;;;;12.73;2.20;;;10.10;83.40;;;;;;5043150;28;20373;-67
2023/05/29 01:23:31;;;;;;;13.18;2.70;;;10.10;82.90;;;;;;5042639;28;20394;-67
2023/05/29 01:26:25;;;;;;;16.65;2.60;;;10.00;82.50;;;;;;5041856;28;20555;-68
2023/05/29 01:28:53;;;;;;;14.07;2.30;;;10.10;82.70;;;;;;5049344;28;20020;-67
2023/05/29 01:31:23;;;;;;;13.57;2.47;;;10.10;82.60;;;;;;5040086;28;20485;-67
2023/05/29 01:33:57;;;;;;;14.45;2.65;;;10.00;82.40;;;;;;5050190;28;20474;-68
2023/05/29 01:36:23;;;;;;;12.02;2.58;;;10.00;82.60;;;;;;5051800;28;20032;-68
2023/05/29 01:38:51;;;;;;;12.05;2.35;;;9.80;82.30;;;;;;5047624;28;20017;-67
2023/05/29 01:41:18;;;;;;;13.15;2.40;;;9.80;82.40;;;;;;5049894;28;20037;-67
2023/05/29 01:43:46;;;;;;;16.10;2.80;;;9.80;82.60;;;;;;5051711;28;20091;-67
2023/05/29 01:46:13;;;;;;;12.98;2.72;;;9.80;82.80;;;;;;5048631;28;20044;-67
2023/05/29 01:48:43;;;;;;;13.48;2.83;;;9.60;82.60;;;;;;5050190;28;20100;-68
2023/05/29 01:51:13;;;;;;;17.65;2.63;;;9.60;83.10;;;;;;5049030;28;20528;-68
2023/05/29 01:53:40;;;;;;;16.52;2.60;;;9.50;83.00;;;;;;5052014;28;20032;-67
2023/05/29 01:56:07;;;;;;;13.60;2.67;;;9.40;83.10;;;;;;5047876;28;20051;-68
2023/05/29 01:58:34;;;;;;;12.90;2.53;;;9.40;83.10;;;;;;5046070;28;20086;-68
2023/05/29 02:01:03;;;;;;;22.10;3.20;;;9.30;83.70;;;;;;5047731;28;20085;-67
2023/05/29 02:03:29;;;;;;;14.77;2.50;;;9.20;83.70;;;;;;5047488;28;20051;-67
2023/05/29 02:05:59;;;;;;;16.23;2.78;;;9.10;84.00;;;;;;5045623;28;20446;-67
2023/05/29 02:08:25;;;;;;;11.45;2.70;;;9.10;84.20;;;;;;5048839;28;20032;-68
2023/05/29 02:10:50;;;;;;;17.45;2.85;;;9.00;84.00;;;;;;5047429;28;20024;-67
2023/05/29 02:13:16;;;;;;;17.38;2.92;;;9.00;84.20;;;;;;5048099;28;20028;-68
2023/05/29 02:15:42;;;;;;;16.35;3.20;;;9.00;84.20;;;;;;5039987;28;20028;-68
2023/05/29 02:18:14;;;;;;;15.30;2.40;;;9.00;84.50;;;;;;5046272;28;20029;-68
2023/05/29 02:20:40;;;;;;;16.38;3.20;;;9.00;84.20;;;;;;5042116;28;20026;-68
2023/05/29 02:23:07;;;;;;;13.98;2.78;;;8.90;84.10;;;;;;5045731;28;20033;-68
2023/05/29 02:25:33;;;;;;;19.23;2.88;;;9.00;84.10;;;;;;5033041;28;20041;-68
2023/05/29 02:27:58;;;;;;;12.88;2.63;;;9.00;84.10;;;;;;5043458;28;20402;-68
2023/05/29 02:30:24;;;;;;;9.63;2.08;;;9.00;84.20;;;;;;5046397;28;20025;-68
2023/05/29 02:32:50;;;;;;;12.90;2.80;;;8.90;84.20;;;;;;5040698;28;20043;-67
2023/05/29 02:35:17;;;;;;;14.75;2.42;;;8.90;84.00;;;;;;5050007;28;20423;-68
2023/05/29 02:37:42;;;;;;;18.85;2.65;;;8.80;84.30;;;;;;5044800;28;20078;-67
2023/05/29 02:40:08;;;;;;;11.27;2.60;;;8.70;84.00;;;;;;5049801;28;20037;-68
2023/05/29 02:42:34;;;;;;;18.08;2.72;;;8.70;84.60;;;;;;5045355;28;20410;-67
2023/05/29 02:45:00;;;;;;;10.68;2.20;;;8.50;84.60;;;;;;5047815;28;20482;-68
2023/05/29 02:47:25;;;;;;;13.65;2.40;;;8.40;84.60;;;;;;5040052;28;20374;-69
2023/05/29 02:49:51;;;;;;;14.77;2.13;;;8.40;85.00;;;;;;5047375;28;20053;-68
2023/05/29 02:52:16;;;;;;;18.33;2.97;;;8.20;85.60;;;;;;5045281;28;20056;-68
2023/05/29 02:54:42;;;;;;;15.68;2.80;;;8.20;85.60;;;;;;5049389;28;20018;-67
2023/05/29 02:57:07;;;;;;;12.45;2.63;;;8.10;85.70;;;;;;5047986;28;20021;-68
2023/05/29 02:59:33;;;;;;;11.40;2.35;;;8.00;85.90;;;;;;5050076;28;20037;-67
2023/05/29 03:01:58;;;;;;;15.18;2.90;;;8.00;86.10;;;;;;5045845;28;20103;-67
2023/05/29 03:04:24;;;;;;;17.23;2.65;;;8.00;86.00;;;;;;5045842;28;20465;-67
2023/05/29 03:06:49;;;;;;;14.05;3.03;;;7.90;86.50;;;;;;5040196;28;20065;-68
2023/05/29 03:09:16;;;;;;;11.57;2.30;;;7.90;86.60;;;;;;5050437;28;20103;-67
2023/05/29 03:11:42;;;;;;;17.33;2.58;;;7.70;86.70;;;;;;5052610;28;20047;-67
2023/05/29 03:14:07;;;;;;;18.55;3.15;;;7.80;87.10;;;;;;5052438;28;20033;-68
2023/05/29 03:16:33;;;;;;;13.45;2.80;;;7.70;87.10;;;;;;5044826;28;20087;-67
2023/05/29 03:18:58;;;;;;;15.18;2.80;;;7.70;87.20;;;;;;5048534;28;20021;-68
2023/05/29 03:21:24;;;;;;;13.68;2.42;;;7.80;86.80;;;;;;5047752;28;20036;-68
2023/05/29 03:23:49;;;;;;;16.70;3.88;;;7.70;87.00;;;;;;5046214;28;20417;-67
2023/05/29 03:26:15;;;;;;;10.68;2.70;;;7.70;86.70;;;;;;5052280;28;20136;-67
2023/05/29 03:28:41;;;;;;;14.82;2.78;;;7.70;87.10;;;;;;5046770;28;20025;-67
2023/05/29 03:31:08;;;;;;;13.75;2.55;;;7.60;87.00;;;;;;5044230;28;20120;-68
2023/05/29 03:33:35;;;;;;;13.43;2.85;;;7.60;87.30;;;;;;5052499;28;20028;-67
2023/05/29 03:36:00;;;;;;;14.15;2.40;;;7.60;87.20;;;;;;5050447;28;20021;-67
2023/05/29 03:38:25;;;;;;;14.88;3.38;;;7.60;87.40;;;;;;5042888;28;20026;-68
2023/05/29 03:40:51;;;;;;;9.27;2.25;;;7.60;87.60;;;;;;5047688;28;20425;-67
2023/05/29 03:43:16;;;;;;;14.18;2.60;;;7.60;87.60;;;;;;5050174;28;20025;-67
2023/05/29 03:45:42;;;;;;;19.17;2.85;;;7.70;87.60;;;;;;5047246;28;20112;-67
2023/05/29 03:48:07;;;;;;;13.32;2.70;;;7.70;87.70;;;;;;5055339;28;20095;-67
2023/05/29 03:50:33;;;;;;;15.88;2.55;;;7.80;87.10;;;;;;5052103;28;20033;-67
2023/05/29 03:52:58;;;;;;;13.23;2.58;;;7.80;87.20;;;;;;5056204;28;20037;-67
2023/05/29 03:55:26;;;;;;;17.83;2.67;;;7.90;87.20;;;;;;5047367;28;20487;-67
2023/05/29 03:57:52;;;;;;;15.27;2.75;;;7.90;87.20;;;;;;5046659;28;20044;-67
2023/05/29 04:00:18;;;;;;;19.63;3.22;;;7.90;87.00;;;;;;5050461;28;20075;-67
2023/05/29 04:02:43;;;;;;;17.00;3.60;;;8.00;87.20;;;;;;5048244;28;20111;-68
2023/05/29 04:05:09;;;;;;;16.40;3.28;;;8.00;87.00;;;;;;5053301;28;20029;-68
2023/05/29 04:07:36;;;;;;;10.13;2.67;;;8.00;86.60;;;;;;5048198;28;20025;-67
2023/05/29 04:10:02;;;;;;;10.52;2.60;;;8.00;86.70;;;;;;5049844;28;20087;-68
2023/05/29 04:12:28;;;;;;;19.13;3.03;;;8.00;87.00;;;;;;5046605;28;20032;-68
2023/05/29 04:14:53;;;;;;;14.25;2.60;;;8.10;87.10;;;;;;5047469;28;20025;-67
2023/05/29 04:17:19;;;;;;;19.50;2.95;;;8.00;86.50;;;;;;5039135;28;20482;-67
2023/05/29 04:19:44;;;;;;;14.48;3.10;;;8.00;86.70;;;;;;5052948;28;20029;-68
2023/05/29 04:22:10;;;;;;;18.88;2.83;;;8.00;86.80;;;;;;5053105;28;20028;-68
2023/05/29 04:24:36;;;;;;;17.48;3.17;;;8.10;87.00;;;;;;5049658;28;20465;-68
2023/05/29 04:27:01;;;;;;;14.10;3.05;;;8.10;86.90;;;;;;5051795;28;20052;-67
2023/05/29 04:29:28;;;;;;;14.13;3.10;;;8.10;86.90;;;;;;5047222;28;20044;-66
2023/05/29 04:31:55;;;;;;;18.98;3.30;;;8.20;86.60;;;;;;5044718;28;20068;-68
2023/05/29 04:34:21;;;;;;;14.38;2.60;;;8.30;86.30;;;;;;5051172;28;20029;-68
2023/05/29 04:36:47;;;;;;;11.77;3.22;;;8.30;86.10;;;;;;5059803;28;20028;-68
2023/05/29 04:39:12;;;;;;;13.18;2.80;;;8.40;85.80;;;;;;5048561;28;20030;-67
2023/05/29 04:41:40;;;;;;;16.05;3.47;;;8.40;86.10;;;;;;5045828;28;20028;-68
2023/05/29 04:44:07;;;;;;;15.23;3.15;;;8.50;85.60;;;;;;5049508;28;20519;-68
2023/05/29 04:46:34;;;;;;;20.42;3.67;;;8.50;85.30;;;;;;5040982;28;20374;-68
2023/05/29 04:49:02;;;;;;;18.08;3.00;;;8.50;85.10;;;;;;5047454;28;20388;-68
2023/05/29 04:51:29;;;;;;;10.90;2.58;;;8.60;85.50;;;;;;5049531;28;20059;-67
2023/05/29 04:53:55;;;;;;;17.75;3.35;;;8.60;84.90;;;;;;5048658;28;20021;-68
2023/05/29 04:56:21;;;;;;;14.27;2.92;;;8.70;84.30;;;;;;5049077;28;20047;-68
2023/05/29 04:58:47;;;;;;;16.27;3.40;;;8.70;84.50;;;;;;5045325;28;20024;-68
2023/05/29 05:01:17;;;;;;;17.35;3.47;;;8.80;84.30;;;;;;5041863;28;20025;-68
2023/05/29 05:03:43;;;;;;;15.60;2.75;;;8.80;84.30;;;;;;5049541;28;20482;-68
2023/05/29 05:06:09;;;;;;;16.58;2.97;;;8.90;83.90;;;;;;5048304;28;20021;-67
2023/05/29 05:08:35;;;;;;;13.05;2.90;;;8.90;83.30;;;;;;5048516;28;20119;-67
2023/05/29 05:11:01;;;;;;;28.08;3.65;;;8.90;83.50;;;;;;5046411;28;20321;-67
2023/05/29 05:13:27;;;;;;;17.20;3.08;;;9.10;83.50;;;;;;5048940;28;20469;-68
2023/05/29 05:15:53;;;;;;;18.27;3.30;;;9.10;83.00;;;;;;5044256;28;20064;-67
2023/05/29 05:18:19;;;;;;;23.70;3.33;;;9.10;82.40;;;;;;5045058;28;20040;-67
2023/05/29 05:20:45;;;;;;;24.45;3.25;;;9.20;82.30;;;;;;5046967;28;20029;-69
2023/05/29 05:23:11;;;;;;;15.85;3.15;;;9.40;82.30;;;;;;5047883;28;20048;-68
2023/05/29 05:25:38;;;;;;;18.50;2.95;;;9.30;81.20;;;;;;5049078;28;20051;-68
2023/05/29 05:28:04;;;;;;;20.42;3.33;;;9.40;81.50;;;;;;5037970;28;20412;-67
2023/05/29 05:30:30;;;;;;;19.48;3.65;;;9.60;82.20;;;;;;5045832;28;20025;-67
2023/05/29 05:32:56;;;;;;;17.48;3.33;;;9.60;82.20;;;;;;5040915;28;20086;-67
2023/05/29 05:35:21;;;;;;;18.50;3.33;;;9.70;81.50;;;;;;5050237;28;20054;-67
2023/05/29 05:37:47;;;;;;;14.25;3.00;;;9.80;81.20;;;;;;5048316;28;20126;-67
2023/05/29 05:40:13;;;;;;;14.98;2.80;;;9.90;81.10;;;;;;5044194;28;20040;-67
2023/05/29 05:42:38;;;;;;;15.68;3.38;;;9.90;79.50;;;;;;5045688;28;20116;-67
2023/05/29 05:45:06;;;;;;;24.33;3.17;;;10.00;80.40;;;;;;5045182;28;20025;-67
2023/05/29 05:47:32;;;;;;;22.10;3.42;;;10.10;79.30;;;;;;5046917;28;20032;-67
2023/05/29 05:49:57;;;;;;;16.15;3.63;;;10.10;80.20;;;;;;5044000;28;20094;-67
2023/05/29 05:52:24;;;;;;;17.50;3.40;;;10.20;78.80;;;;;;5049015;28;20107;-67
2023/05/29 05:54:50;;;;;;;13.95;3.00;;;10.40;79.00;;;;;;5044415;28;20031;-68
2023/05/29 05:57:15;;;;;;;16.42;3.72;;;10.50;78.80;;;;;;5041622;28;20033;-67
2023/05/29 05:59:41;;;;;;;18.83;3.50;;;10.60;78.30;;;;;;5043164;28;20091;-67
2023/05/29 06:02:07;;;;;;;16.95;3.08;;;10.70;77.80;;;;;;5044672;28;20067;-67
2023/05/29 06:04:32;;;;;;;16.80;3.53;;;10.50;76.60;;;;;;5046728;28;20033;-67
2023/05/29 06:06:58;;;;;;;16.88;3.13;;;10.70;76.40;;;;;;5045516;28;20029;-67
2023/05/29 06:09:24;;;;;;;19.65;3.10;;;10.70;75.90;;;;;;5046844;28;20028;-67
2023/05/29 06:11:50;;;;;;;18.13;3.58;;;10.80;76.00;;;;;;5049159;28;20477;-67
2023/05/29 06:14:16;;;;;;;14.07;3.38;;;10.80;76.10;;;;;;5044390;28;20037;-68
2023/05/29 06:16:41;;;;;;;19.00;2.95;;;11.10;75.50;;;;;;5041458;28;20025;-67
2023/05/29 06:19:08;;;;;;;21.42;3.42;;;11.10;74.60;;;;;;5047135;28;20021;-68
2023/05/29 06:21:33;;;;;;;11.63;3.20;;;11.10;74.90;;;;;;5048637;28;20033;-67
2023/05/29 06:23:59;;;;;;;18.00;3.60;;;11.10;74.20;;;;;;5047443;28;20477;-67
2023/05/29 06:26:25;;;;;;;18.70;3.47;;;11.00;74.40;;;;;;5046511;28;20049;-68
2023/05/29 06:28:51;;;;;;;17.13;3.58;;;11.40;75.00;;;;;;5045624;28;20020;-67
2023/05/29 06:31:16;;;;;;;15.60;3.15;;;11.50;73.50;;;;;;5040410;28;20351;-68
2023/05/29 06:33:42;;;;;;;15.02;3.00;;;11.80;74.30;;;;;;5047386;28;20083;-68
2023/05/29 06:36:07;;;;;;;12.35;2.63;;;11.90;74.40;;;;;;5048297;28;20385;-69
2023/05/29 06:38:33;;;;;;;15.90;3.38;;;11.70;71.60;;;;;;5040919;28;20036;-67
2023/05/29 06:40:58;;;;;;;21.67;3.70;;;11.90;72.10;;;;;;5043381;28;20025;-68
2023/05/29 06:43:24;;;;;;;16.10;3.10;;;12.00;71.40;;;;;;5041349;28;20049;-68
2023/05/29 06:45:49;;;;;;;22.23;3.03;;;12.30;71.20;;;;;;5036060;28;20409;-67
2023/05/29 06:48:15;;;;;;;16.73;3.25;;;12.60;70.50;;;;;;5038978;28;20036;-68
2023/05/29 06:50:40;;;;;;;16.20;3.10;;;12.30;70.10;;;;;;5049977;28;20029;-69
2023/05/29 06:53:06;;;;;;;19.90;3.13;;;12.50;70.40;;;;;;5039927;28;20024;-69
2023/05/29 06:55:31;;;;;;;9.98;2.40;;;13.00;73.30;;;;;;5055086;28;20033;-68
2023/05/29 06:57:57;;;;;;;14.98;3.20;;;13.10;69.90;;;;;;5060874;28;20035;-68
2023/05/29 07:00:22;;;;;;;19.52;3.42;;;13.00;69.20;;;;;;5051386;28;20040;-68
2023/05/29 07:02:48;;;;;;;17.52;3.20;;;12.80;69.80;;;;;;5041379;28;20102;-68
2023/05/29 07:05:14;;;;;;;15.90;2.75;;;12.80;67.70;;;;;;5044900;28;20500;-68
2023/05/29 07:07:39;;;;;;;15.48;3.28;;;13.10;68.30;;;;;;5044575;28;20040;-68
2023/05/29 07:10:06;;;;;;;14.50;2.90;;;13.20;69.00;;;;;;5053606;28;20016;-68
2023/05/29 07:12:31;;;;;;;17.48;3.78;;;13.20;66.80;;;;;;5049138;28;20389;-67
2023/05/29 07:14:57;;;;;;;14.90;2.50;;;12.90;69.00;;;;;;5037463;28;20046;-68
2023/05/29 07:17:22;;;;;;;13.27;3.10;;;12.60;67.10;;;;;;5041990;28;20083;-68
2023/05/29 07:19:49;;;;;;;15.88;3.35;;;12.60;68.40;;;;;;5048771;28;20490;-68
2023/05/29 07:22:15;;;;;;;15.20;2.92;;;12.70;68.70;;;;;;5049688;28;20024;-68
2023/05/29 07:24:40;;;;;;;18.73;3.30;;;12.90;69.50;;;;;;5060616;28;20093;-68
2023/05/29 07:27:06;;;;;;;24.05;3.33;;;13.00;69.50;;;;;;5045408;28;20786;-68
2023/05/29 07:29:32;;;;;;;19.58;3.08;;;13.50;70.00;;;;;;5042856;28;20032;-69
2023/05/29 07:31:57;;;;;;;17.85;3.22;;;13.20;67.00;;;;;;5034623;28;20107;-68
2023/05/29 07:34:23;;;;;;;20.05;3.30;;;13.20;68.60;;;;;;5035692;28;20377;-68
2023/05/29 07:37:03;;;;;;;20.17;3.58;;;13.30;67.10;;;;;;5041330;28;20100;-69
2023/05/29 07:39:33;;;;;;;16.48;2.70;;;13.10;66.20;;;;;;5046767;28;20036;-68
2023/05/29 07:42:02;;;;;;;11.63;2.70;;;13.30;66.60;;;;;;5043506;28;20037;-68
2023/05/29 07:44:27;;;;;;;14.85;3.15;;;13.40;66.40;;;;;;5038907;28;20025;-68
2023/05/29 07:46:53;;;;;;;17.60;3.25;;;13.50;67.30;;;;;;5045962;28;20321;-69
2023/05/29 07:49:20;;;;;;;12.30;3.00;;;13.40;66.80;;;;;;5045180;28;20075;-68
2023/05/29 07:51:45;;;;;;;15.50;3.88;;;13.60;67.30;;;;;;5046460;28;20055;-69
2023/05/29 07:54:11;;;;;;;19.52;3.70;;;14.00;64.40;;;;;;5040223;28;20973;-68
2023/05/29 07:56:37;;;;;;;14.68;3.00;;;14.30;65.30;;;;;;5047953;28;20362;-69
2023/05/29 07:59:03;;;;;;;15.25;3.47;;;14.50;64.20;;;;;;5050564;28;20379;-68
2023/05/29 08:01:28;;;;;;;16.42;3.22;;;14.60;65.80;;;;;;5044146;28;20032;-71
2023/05/29 08:03:54;;;;;;;26.02;3.60;;;14.60;63.30;;;;;;5046418;28;20036;-68
2023/05/29 08:06:20;;;;;;;15.73;3.03;;;14.80;62.50;;;;;;5048973;28;20048;-70
2023/05/29 08:08:45;;;;;;;19.88;3.78;;;14.80;63.60;;;;;;5046910;28;20040;-70
2023/05/29 08:11:11;;;;;;;17.48;3.03;;;14.70;61.80;;;;;;5045409;28;20113;-70
2023/05/29 08:13:36;;;;;;;11.70;2.50;;;14.70;61.30;;;;;;5046916;28;20450;-68
2023/05/29 08:16:02;;;;;;;14.48;3.15;;;14.90;62.60;;;;;;5041018;28;20032;-70
2023/05/29 08:18:32;;;;;;;15.13;3.13;;;15.20;60.50;;;;;;5051667;28;20025;-68
2023/05/29 08:20:57;;;;;;;18.40;3.08;;;15.60;60.30;;;;;;5051938;28;20016;-68
2023/05/29 08:23:23;;;;;;;14.65;3.20;;;15.80;60.20;;;;;;5053224;28;20090;-68
2023/05/29 08:25:49;;;;;;;14.32;3.17;;;15.90;61.30;;;;;;5043255;28;20033;-69
2023/05/29 08:28:15;;;;;;;13.98;3.38;;;15.60;60.60;;;;;;5042871;28;20021;-68
2023/05/29 08:30:41;;;;;;;15.45;3.40;;;16.20;61.80;;;;;;5040976;28;20025;-69
2023/05/29 08:33:06;;;;;;;12.50;3.28;;;16.00;61.30;;;;;;5035318;28;20032;-68
2023/05/29 08:35:32;;;;;;;11.55;2.75;;;15.90;59.50;;;;;;5045794;28;20354;-68
2023/05/29 08:37:58;;;;;;;14.95;2.83;;;16.10;57.20;;;;;;5043034;28;20335;-69
2023/05/29 08:40:24;;;;;;;11.55;2.95;;;16.00;58.60;;;;;;5046590;28;20029;-69
2023/05/29 08:43:21;;;;;;;12.00;3.20;;;15.80;58.70;;;;;;5044846;28;20029;-70
2023/05/29 08:45:52;;;;;;;17.73;3.63;;;15.80;60.90;;;;;;5038741;28;20037;-69
2023/05/29 08:48:20;;;;;;;15.30;3.30;;;16.30;58.60;;;;;;5047831;28;20064;-69
2023/05/29 08:50:46;;;;;;;12.77;2.92;;;16.00;57.50;;;;;;5047868;28;20021;-70
2023/05/29 08:53:13;;;;;;;15.10;3.03;;;16.20;56.60;;;;;;5050318;28;20025;-69
2023/05/29 08:55:39;;;;;;;14.68;3.20;;;16.40;56.60;;;;;;5050699;28;20029;-70
2023/05/29 08:58:06;;;;;;;15.57;2.90;;;16.50;56.60;;;;;;5048643;28;20128;-69
2023/05/29 09:00:32;;;;;;;11.43;3.08;;;16.90;56.30;;;;;;5043991;28;20028;-69
2023/05/29 09:02:59;;;;;;;15.57;3.55;;;16.80;57.90;;;;;;5042816;28;20033;-69
2023/05/29 09:05:27;;;;;;;11.73;2.35;;;17.50;55.90;;;;;;5049228;28;20408;-69
2023/05/29 09:07:53;;;;;;;16.52;3.35;;;17.00;56.20;;;;;;5050321;28;20028;-70
2023/05/29 09:10:20;;;;;;;15.18;3.33;;;17.30;55.00;;;;;;5049101;28;20013;-69
2023/05/29 09:12:46;;;;;;;13.10;3.00;;;16.70;52.80;;;;;;5045049;28;20017;-69
2023/05/29 09:15:19;;;;;;;14.07;3.25;;;16.80;53.00;;;;;;5044879;28;20102;-69
2023/05/29 09:17:51;;;;;;;14.40;2.97;;;16.90;54.50;;;;;;5040060;28;20062;-69
2023/05/29 09:20:17;;;;;;;14.82;3.22;;;17.20;54.50;;;;;;5039076;28;20347;-70
2023/05/29 09:22:56;;;;;;;11.10;2.80;;;17.40;53.40;;;;;;5037745;28;20032;-69
2023/05/29 09:25:30;;;;;;;12.30;3.38;;;17.20;52.40;;;;;;5038705;28;20175;-69
2023/05/29 09:28:00;;;;;;;15.02;3.58;;;16.90;54.10;;;;;;5040204;28;20040;-69
2023/05/29 09:30:48;;;;;;;11.77;3.55;;;16.60;54.50;;;;;;5040711;28;20021;-69
2023/05/29 09:33:15;;;;;;;16.30;3.38;;;16.60;53.10;;;;;;5045667;28;20044;-69
2023/05/29 09:35:46;;;;;;;17.02;2.92;;;17.50;53.20;;;;;;5046081;28;20104;-69
2023/05/29 09:38:13;;;;;;;16.17;3.43;;;18.20;53.90;;;;;;5046092;28;20045;-69
2023/05/29 09:40:40;;;;;;;12.60;2.85;;;18.30;51.70;;;;;;5046001;28;20029;-70
2023/05/29 09:43:10;;;;;;;11.77;2.92;;;18.50;50.00;;;;;;5043848;28;20040;-70
2023/05/29 09:45:40;;;;;;;11.18;2.60;;;18.00;50.50;;;;;;5045721;28;20873;-70
2023/05/29 09:48:07;;;;;;;15.13;3.00;;;17.50;51.50;;;;;;5042656;28;20087;-70
2023/05/29 09:50:34;;;;;;;12.30;3.03;;;17.50;50.90;;;;;;5049472;28;20039;-69
2023/05/29 09:53:01;;;;;;;10.88;2.95;;;17.60;50.40;;;;;;5055120;28;20048;-70
2023/05/29 09:55:28;;;;;;;16.23;3.35;;;17.40;52.10;;;;;;5044508;28;20038;-69
2023/05/29 09:57:54;;;;;;;13.68;2.83;;;17.60;50.30;;;;;;5046200;28;20021;-69
2023/05/29 10:00:21;;;;;;;11.02;2.95;;;18.20;51.50;;;;;;5051114;28;20083;-70
2023/05/29 10:02:48;;;;;;;11.82;3.45;;;17.90;50.30;;;;;;5042671;28;20029;-69
2023/05/29 10:05:15;;;;;;;10.45;2.60;;;18.10;51.20;;;;;;5045762;28;20029;-69
2023/05/29 10:07:47;;;;;;;11.57;2.72;;;18.10;49.20;;;;;;5044024;28;20021;-69
2023/05/29 10:10:14;;;;;;;9.50;2.72;;;18.00;50.80;;;;;;5045741;28;20052;-69
2023/05/29 10:12:44;;;;;;;11.45;2.67;;;18.50;49.80;;;;;;5042907;28;20113;-69
2023/05/29 10:15:14;;;;;;;12.20;3.10;;;18.00;49.40;;;;;;5040797;28;20021;-69
2023/05/29 10:17:50;;;;;;;10.57;2.90;;;18.00;47.70;;;;;;5042619;28;20037;-70
2023/05/29 10:20:18;;;;;;;12.65;3.05;;;18.50;49.10;;;;;;5044851;28;20041;-70
2023/05/29 10:22:47;;;;;;;16.98;2.60;;;19.00;47.90;;;;;;5043631;28;20025;-70
2023/05/29 10:25:15;;;;;;;13.68;2.88;;;19.10;49.00;;;;;;5043933;28;20031;-69
2023/05/29 10:27:41;;;;;;;12.82;2.55;;;19.70;49.40;;;;;;5039745;28;20061;-69
2023/05/29 10:30:33;;;;;;;14.85;3.28;;;20.00;46.50;;;;;;5037524;28;20025;-69
2023/05/29 10:33:08;;;;;;;11.77;2.83;;;20.00;47.10;;;;;;5041593;28;20112;-70
2023/05/29 10:35:46;;;;;;;12.20;2.90;;;19.50;48.40;;;;;;5048761;28;20095;-70
2023/05/29 10:38:18;;;;;;;11.23;2.97;;;19.60;48.20;;;;;;5050289;28;20047;-69
2023/05/29 10:40:44;;;;;;;9.95;2.40;;;20.20;47.70;;;;;;5047399;28;20024;-69
2023/05/29 10:43:31;;;;;;;9.93;2.30;;;19.90;47.30;;;;;;5047923;28;20039;-70
2023/05/29 10:45:56;;;;;;;10.15;2.50;;;19.50;45.10;;;;;;5038880;28;20132;-69
2023/05/29 10:48:28;;;;;;;9.55;2.75;;;19.60;47.30;;;;;;5048041;28;20123;-70
2023/05/29 10:50:55;;;;;;;11.95;2.90;;;20.00;46.70;;;;;;5049878;28;20484;-70
2023/05/29 10:53:30;;;;;;;9.68;3.05;;;20.00;44.30;;;;;;5048941;28;20108;-69
2023/05/29 10:55:56;;;;;;;10.20;3.40;;;19.40;45.60;;;;;;5045985;28;20031;-70
2023/05/29 10:58:24;;;;;;;10.05;2.55;;;19.00;46.80;;;;;;5050544;28;20025;-69
2023/05/29 11:00:49;;;;;;;14.13;3.60;;;19.70;48.70;;;;;;5046971;28;20108;-69
2023/05/29 11:03:29;;;;;;;14.18;3.15;;;20.30;45.70;;;;;;5044871;28;20131;-70
2023/05/29 11:06:01;;;;;;;16.08;3.03;;;20.50;46.60;;;;;;5049668;28;20086;-70
2023/05/29 11:08:55;;;;;;;11.57;2.70;;;20.60;46.10;;;;;;5049928;28;20350;-70
2023/05/29 11:11:27;;;;;;;11.50;2.80;;;19.70;46.20;;;;;;5039319;28;20013;-70
2023/05/29 11:13:53;;;;;;;11.13;2.95;;;20.20;44.00;;;;;;5046533;28;20099;-70
2023/05/29 11:16:28;;;;;;;14.15;2.70;;;20.40;43.90;;;;;;5038468;28;20025;-71
2023/05/29 11:18:53;;;;;;;10.98;2.65;;;20.70;43.60;;;;;;5042125;28;20029;-69
2023/05/29 11:21:33;;;;;;;9.23;2.95;;;20.60;43.80;;;;;;5045321;28;20453;-70
2023/05/29 11:24:02;;;;;;;11.73;3.25;;;20.50;43.70;;;;;;5046461;28;20047;-69
2023/05/29 11:26:29;;;;;;;14.13;2.90;;;21.10;44.00;;;;;;5046535;28;20041;-70
2023/05/29 11:29:01;;;;;;;13.80;2.85;;;21.50;44.20;;;;;;5046845;28;20377;-70
2023/05/29 11:31:31;;;;;;;10.35;2.67;;;21.60;43.70;;;;;;5050931;28;20030;-70
2023/05/29 11:33:59;;;;;;;8.77;2.90;;;21.90;43.70;;;;;;5047721;28;20029;-70
2023/05/29 11:36:27;;;;;;;9.45;3.35;;;22.40;42.20;;;;;;5052977;28;20476;-70
2023/05/29 11:38:53;;;;;;;10.88;2.92;;;22.40;43.40;;;;;;5056416;28;20112;-71
2023/05/29 11:41:18;;;;;;;12.23;2.42;;;21.80;41.10;;;;;;5051384;28;20147;-70
2023/05/29 11:43:45;;;;;;;10.57;3.20;;;21.60;42.20;;;;;;5058010;28;20540;-70
2023/05/29 11:46:20;;;;;;;10.27;4.20;;;21.50;41.70;;;;;;5047065;28;20100;-70
2023/05/29 11:48:49;;;;;;;11.88;3.30;;;21.40;42.70;;;;;;5054673;28;20040;-70
2023/05/29 11:51:15;;;;;;;13.18;3.00;;;21.50;41.70;;;;;;5056343;28;20024;-70
2023/05/29 11:53:46;;;;;;;11.82;3.30;;;22.10;43.20;;;;;;5043405;28;20529;-71
2023/05/29 11:56:12;;;;;;;10.77;2.50;;;22.60;44.20;;;;;;5051572;28;20027;-71
2023/05/29 11:58:38;;;;;;;8.48;2.25;;;22.50;41.40;;;;;;5056064;28;20078;-70
2023/05/29 12:01:04;;;;;;;9.82;2.75;;;23.00;41.60;;;;;;5052279;28;20024;-70
2023/05/29 12:03:30;;;;;;;11.82;2.40;;;23.10;39.60;;;;;;5046272;28;20033;-70
2023/05/29 12:05:55;;;;;;;8.30;2.60;;;23.00;40.90;;;;;;5053550;28;20090;-71
2023/05/29 12:08:25;;;;;;;10.90;2.95;;;23.00;39.10;;;;;;5052176;28;20017;-71
2023/05/29 12:10:52;;;;;;;9.77;2.60;;;22.30;39.30;;;;;;5047464;28;20061;-70
2023/05/29 12:13:23;;;;;;;9.35;2.80;;;23.40;39.90;;;;;;5051019;28;20025;-71
2023/05/29 12:15:52;;;;;;;9.95;2.53;;;23.80;39.00;;;;;;5049485;28;20100;-70
2023/05/29 12:18:17;;;;;;;8.98;2.47;;;24.00;40.70;;;;;;5050258;28;20415;-71
2023/05/29 12:20:43;;;;;;;7.85;2.53;;;23.70;36.90;;;;;;5049488;28;20513;-70
2023/05/29 12:23:08;;;;;;;9.20;2.53;;;23.50;39.50;;;;;;5052364;28;20021;-71
2023/05/29 12:25:37;;;;;;;9.50;2.50;;;24.10;38.20;;;;;;5051290;28;20099;-71
2023/05/29 12:28:03;;;;;;;12.35;3.20;;;24.40;38.70;;;;;;5042095;28;20127;-70
2023/05/29 12:30:29;;;;;;;9.10;2.70;;;24.30;37.50;;;;;;5049535;28;20394;-70
2023/05/29 12:32:55;;;;;;;10.27;2.47;;;24.90;39.40;;;;;;5044158;28;20090;-70
2023/05/29 12:35:25;;;;;;;7.28;2.33;;;24.30;36.40;;;;;;5047974;28;20104;-70
2023/05/29 12:38:04;;;;;;;8.75;2.50;;;25.50;38.80;;;;;;5050497;28;20028;-70
2023/05/29 12:40:33;;;;;;;10.05;2.70;;;25.50;38.90;;;;;;5053786;28;20476;-70
2023/05/29 12:43:04;;;;;;;9.70;2.70;;;25.60;39.40;;;;;;5048248;28;20144;-70